createdAt,value
2018-03-26T07:15:31.300Z,25.10
2018-03-26T07:18:00.493Z,26.67
2018-03-26T07:20:29.353Z,25.20
2018-03-26T07:22:58.187Z,31.13
2018-03-26T07:25:27.269Z,26.20
2018-03-26T07:27:55.750Z,26.20
2018-03-26T07:30:24.232Z,25.53
2018-03-26T07:32:53.355Z,27.30
2018-03-26T07:35:22.368Z,32.80
2018-03-26T07:37:51.323Z,34.67
2018-03-26T07:40:21.053Z,30.20
2018-03-26T07:42:49.273Z,38.20
2018-03-26T07:45:17.828Z,33.30
2018-03-26T07:47:46.077Z,34.70
2018-03-26T07:50:15.065Z,36.30
2018-03-26T07:55:18.790Z,27.87
2018-03-26T07:57:47.389Z,27.93
2018-03-26T08:00:16.078Z,25.30
2018-03-26T08:02:44.545Z,30.80
2018-03-26T08:05:13.524Z,28.90
2018-03-26T08:07:42.428Z,29.23
2018-03-26T08:10:11.445Z,31.57
2018-03-26T08:12:39.650Z,30.93
2018-03-26T08:15:08.294Z,42.93
2018-03-26T08:17:38.082Z,38.90
2018-03-26T08:20:09.498Z,35.27
2018-03-26T08:22:38.338Z,28.73
2018-03-26T08:25:07.853Z,35.67
2018-03-26T08:27:36.844Z,31.40
2018-03-26T08:30:05.509Z,37.20
2018-03-26T08:32:35.296Z,33.03
2018-03-26T08:35:04.310Z,25.10
2018-03-26T08:37:33.129Z,39.00
2018-03-26T08:40:02.912Z,36.43
2018-03-26T08:42:31.200Z,29.67
2018-03-26T08:44:59.477Z,38.80
2018-03-26T08:47:27.757Z,36.57
2018-03-26T08:49:56.048Z,32.53
2018-03-26T08:52:25.034Z,32.20
2018-03-26T08:54:53.758Z,27.83
2018-03-26T08:57:22.784Z,28.47
2018-03-26T08:59:51.610Z,37.87
2018-03-26T09:02:21.452Z,30.53
2018-03-26T09:04:49.965Z,29.63
2018-03-26T09:07:18.293Z,31.37
2018-03-26T09:09:47.474Z,37.27
2018-03-26T09:12:15.781Z,32.40
2018-03-26T09:14:44.014Z,38.10
2018-03-26T09:17:13.233Z,32.50
2018-03-26T09:19:42.702Z,29.20
2018-03-26T09:22:12.277Z,34.83
2018-03-26T09:24:40.479Z,33.97
2018-03-26T09:27:09.395Z,36.43
2018-03-26T09:29:38.525Z,36.60
2018-03-26T09:32:07.488Z,31.40
2018-03-26T09:34:36.744Z,36.53
2018-03-26T09:37:04.966Z,31.67
2018-03-26T09:39:33.186Z,34.70
2018-03-26T09:42:02.165Z,37.80
2018-03-26T09:44:32.093Z,30.93
2018-03-26T09:47:01.655Z,34.67
2018-03-26T09:49:29.969Z,35.00
2018-03-26T09:51:59.577Z,33.00
2018-03-26T09:54:27.936Z,41.27
2018-03-26T09:56:56.843Z,34.87
2018-03-26T09:59:26.140Z,36.70
2018-03-26T10:01:57.018Z,35.57
2018-03-26T10:04:25.366Z,40.20
2018-03-26T10:06:54.461Z,34.03
2018-03-26T10:09:23.966Z,35.33
2018-03-26T10:11:53.334Z,36.53
2018-03-26T10:14:21.972Z,38.33
2018-03-26T10:16:50.643Z,39.27
2018-03-26T10:19:20.149Z,36.47
2018-03-26T10:21:50.030Z,40.67
2018-03-26T10:24:18.755Z,40.70
2018-03-26T10:26:48.921Z,44.03
2018-03-26T10:29:22.665Z,39.67
2018-03-26T10:31:51.374Z,36.10
2018-03-26T10:34:19.585Z,44.03
2018-03-26T10:36:47.921Z,40.87
2018-03-26T10:39:16.911Z,36.13
2018-03-26T10:41:45.521Z,39.47
2018-03-26T10:44:13.726Z,42.37
2018-03-26T10:46:41.945Z,38.30
2018-03-26T10:49:10.352Z,37.90
2018-03-26T10:51:39.629Z,38.73
2018-03-26T10:54:09.856Z,42.73
2018-03-26T10:56:42.789Z,46.83
2018-03-26T10:59:14.392Z,40.57
2018-03-26T11:01:49.613Z,46.63
2018-03-26T11:04:18.117Z,41.53
2018-03-26T11:06:47.158Z,45.90
2018-03-26T11:09:15.882Z,44.77
2018-03-26T11:11:44.365Z,42.27
2018-03-26T11:14:12.577Z,41.57
2018-03-26T11:16:41.706Z,42.07
2018-03-26T11:19:10.204Z,45.23
2018-03-26T11:21:38.730Z,43.50
2018-03-26T11:24:06.941Z,48.13
2018-03-26T11:26:35.261Z,50.93
2018-03-26T11:29:05.220Z,46.77
2018-03-26T11:31:35.080Z,46.07
2018-03-26T11:34:03.622Z,48.60
2018-03-26T11:36:31.841Z,42.07
2018-03-26T11:39:00.501Z,44.13
2018-03-26T11:41:29.255Z,46.83
2018-03-26T11:43:57.477Z,52.47
2018-03-26T11:46:26.073Z,40.20
2018-03-26T11:48:54.283Z,43.30
2018-03-26T11:51:22.503Z,43.70
2018-03-26T11:53:51.442Z,43.27
2018-03-26T11:56:20.434Z,46.13
2018-03-26T11:58:49.406Z,58.83
2018-03-26T12:01:18.162Z,41.70
2018-03-26T12:03:47.056Z,52.47
2018-03-26T12:06:15.268Z,43.23
2018-03-26T12:08:44.019Z,43.97
2018-03-26T12:11:12.231Z,45.53
2018-03-26T12:13:40.474Z,43.07
2018-03-26T12:16:09.349Z,48.27
2018-03-26T12:18:38.107Z,43.93
2018-03-26T12:21:07.194Z,51.10
2018-03-26T12:23:47.973Z,44.13
2018-03-26T12:26:16.952Z,45.97
2018-03-26T12:29:03.865Z,47.47
2018-03-26T12:31:32.633Z,47.70
2018-03-26T12:47:30.266Z,48.33
2018-03-26T12:49:58.797Z,52.55
2018-03-26T12:52:40.195Z,48.50
2018-03-26T12:55:09.495Z,44.77
2018-03-26T12:57:50.462Z,41.23
2018-03-26T13:00:19.546Z,45.13
2018-03-26T13:02:47.846Z,39.97
2018-03-26T13:07:52.599Z,44.83
2018-03-26T13:10:21.397Z,40.93
2018-03-26T13:12:50.553Z,45.43
2018-03-26T13:15:25.723Z,43.53
2018-03-26T13:17:55.203Z,53.60
2018-03-26T13:20:23.557Z,47.37
2018-03-26T13:22:52.326Z,47.00
2018-03-26T13:25:20.536Z,51.63
2018-03-26T13:27:48.743Z,45.70
2018-03-26T13:30:18.245Z,39.90
2018-03-26T13:32:46.449Z,44.30
2018-03-26T13:35:15.818Z,45.43
2018-03-26T13:37:44.786Z,48.23
2018-03-26T13:40:12.985Z,46.10
2018-03-26T13:42:41.674Z,47.67
2018-03-26T13:45:10.650Z,41.43
2018-03-26T13:47:38.858Z,40.67
2018-03-26T13:50:07.123Z,41.03
2018-03-26T13:52:36.348Z,40.57
2018-03-26T13:55:04.739Z,46.00
2018-03-26T13:57:39.982Z,37.93
2018-03-26T14:00:09.054Z,36.90
2018-03-26T14:02:37.253Z,40.47
2018-03-26T14:05:06.211Z,40.90
2018-03-26T14:07:35.185Z,36.17
2018-03-26T14:10:15.126Z,35.70
2018-03-26T14:12:55.501Z,30.33
2018-03-26T14:15:38.452Z,34.97
2018-03-26T14:18:07.561Z,34.20
2018-03-26T14:20:41.340Z,30.67
2018-03-26T14:23:10.691Z,35.20
2018-03-26T14:25:39.049Z,27.13
2018-03-26T14:28:07.578Z,26.63
2018-03-26T14:30:36.384Z,32.40
2018-03-26T14:33:04.603Z,29.30
2018-03-26T14:35:48.421Z,30.33
2018-03-26T14:38:16.702Z,26.03
2018-03-26T14:40:45.658Z,29.10
2018-03-26T14:43:14.032Z,38.10
2018-03-26T14:45:42.989Z,36.33
2018-03-26T14:48:11.216Z,33.50
2018-03-26T14:50:39.509Z,37.10
2018-03-26T14:53:09.497Z,34.05
2018-03-26T14:55:38.347Z,33.93
2018-03-26T14:58:07.589Z,33.73
2018-03-26T15:00:38.834Z,33.17
2018-03-26T15:03:07.180Z,32.70
2018-03-26T15:05:35.385Z,27.87
2018-03-26T15:08:04.208Z,31.67
2018-03-26T15:10:32.959Z,31.53
2018-03-26T15:13:01.579Z,32.30
2018-03-26T15:15:31.009Z,32.50
2018-03-26T15:17:59.224Z,32.20
2018-03-26T15:20:28.233Z,34.17
2018-03-26T15:22:56.995Z,32.33
2018-03-26T15:25:25.193Z,30.70
2018-03-26T15:27:53.617Z,30.37
2018-03-26T15:30:22.078Z,29.43
2018-03-26T15:32:53.846Z,32.33
2018-03-26T15:35:22.207Z,28.40
2018-03-26T15:37:50.421Z,28.30
2018-03-26T15:40:18.621Z,33.20
2018-03-26T15:42:46.846Z,34.40
2018-03-26T15:45:15.815Z,28.50
2018-03-26T15:47:44.021Z,28.83
2018-03-26T15:50:13.012Z,28.13
2018-03-26T15:52:42.617Z,29.80
2018-03-26T15:55:11.331Z,30.50
2018-03-26T15:57:40.413Z,28.73
2018-03-26T16:00:09.335Z,33.33
2018-03-26T16:02:43.289Z,30.00
2018-03-26T16:05:11.963Z,34.70
2018-03-26T16:07:40.176Z,32.10
2018-03-26T16:10:08.716Z,43.00
2018-03-26T16:12:36.894Z,34.53
2018-03-26T16:15:05.873Z,31.70
2018-03-26T16:17:34.513Z,31.57
2018-03-26T16:20:08.746Z,31.93
2018-03-26T16:22:37.026Z,25.20
2018-03-26T16:25:05.230Z,32.43
2018-03-26T16:27:33.530Z,26.30
2018-03-26T16:30:02.053Z,34.43
2018-03-26T16:32:30.260Z,27.83
2018-03-26T16:34:58.525Z,34.33
2018-03-26T16:37:27.333Z,28.77
2018-03-26T16:39:55.997Z,35.90
2018-03-26T16:42:25.741Z,33.77
2018-03-26T16:44:53.921Z,31.03
2018-03-26T16:47:22.133Z,33.27
2018-03-26T16:49:50.885Z,33.93
2018-03-26T16:52:25.531Z,34.27
2018-03-26T16:54:54.019Z,37.50
2018-03-26T16:57:23.089Z,33.67
2018-03-26T16:59:51.654Z,33.20
2018-03-26T17:02:19.865Z,34.73
2018-03-26T17:04:48.130Z,41.93
2018-03-26T17:07:16.337Z,34.30
2018-03-26T17:09:44.553Z,34.27
2018-03-26T17:12:12.798Z,39.70
2018-03-26T17:14:41.005Z,35.53
2018-03-26T17:17:10.055Z,42.00
2018-03-26T17:19:39.150Z,46.90
2018-03-26T17:22:08.320Z,41.77
2018-03-26T17:24:36.486Z,43.93
2018-03-26T17:27:05.099Z,35.30
2018-03-26T17:29:34.804Z,41.37
2018-03-26T17:32:02.966Z,37.97
2018-03-26T17:34:31.170Z,33.67
2018-03-26T17:37:00.154Z,39.13
2018-03-26T17:39:28.365Z,34.63
2018-03-26T17:41:57.217Z,39.70
2018-03-26T17:44:26.620Z,39.90
2018-03-26T17:46:54.838Z,36.80
2018-03-26T17:49:23.053Z,32.40
2018-03-26T17:51:51.280Z,38.37
2018-03-26T17:54:19.566Z,44.90
2018-03-26T17:56:48.289Z,42.43
2018-03-26T17:59:16.698Z,45.67
2018-03-26T18:01:55.040Z,46.10
2018-03-26T18:04:23.701Z,37.23
2018-03-26T18:06:52.669Z,37.93
2018-03-26T18:09:20.874Z,38.00
2018-03-26T18:11:49.454Z,46.87
2018-03-26T18:14:18.833Z,41.53
2018-03-26T18:16:47.145Z,41.30
2018-03-26T18:19:15.531Z,43.30
2018-03-26T18:21:44.210Z,40.93
2018-03-26T18:24:13.265Z,38.20
2018-03-26T18:26:41.646Z,48.33
2018-03-26T18:29:15.677Z,44.10
2018-03-26T18:31:44.494Z,43.37
2018-03-26T18:34:13.983Z,43.30
2018-03-26T18:36:42.953Z,36.27
2018-03-26T18:39:11.430Z,58.13
2018-03-26T18:41:39.619Z,47.70
2018-03-26T18:44:07.812Z,42.80
2018-03-26T18:46:36.792Z,41.50
2018-03-26T18:49:05.025Z,44.60
2018-03-26T18:51:33.705Z,47.87
2018-03-26T18:54:02.859Z,41.73
2018-03-26T18:56:36.100Z,42.70
2018-03-26T18:59:04.305Z,48.07
2018-03-26T19:01:32.684Z,46.23
2018-03-26T19:06:42.017Z,39.20
2018-03-26T19:09:10.217Z,48.90
2018-03-26T19:11:38.799Z,39.87
2018-03-26T19:14:08.142Z,41.73
2018-03-26T19:16:36.828Z,44.60
2018-03-26T19:19:05.988Z,41.57
2018-03-26T19:21:34.291Z,48.73
2018-03-26T19:24:03.178Z,45.30
2018-03-26T19:26:31.390Z,41.00
2018-03-26T19:29:00.021Z,46.70
2018-03-26T19:31:28.726Z,43.33
2018-03-26T19:33:56.918Z,42.27
2018-03-26T19:36:26.068Z,44.57
2018-03-26T19:38:54.489Z,43.93
2018-03-26T19:41:23.459Z,41.07
2018-03-26T19:43:52.242Z,40.00
2018-03-26T19:46:21.169Z,40.60
2018-03-26T19:48:50.459Z,44.47
2018-03-26T19:51:20.094Z,41.47
2018-03-26T19:53:48.830Z,41.57
2018-03-26T19:56:17.047Z,48.23
2018-03-26T19:58:46.013Z,45.90
2018-03-26T20:01:14.580Z,43.70
2018-03-26T20:03:43.040Z,42.83
2018-03-26T20:06:11.674Z,45.70
2018-03-26T20:08:40.773Z,44.10
2018-03-26T20:11:09.749Z,50.20
2018-03-26T20:13:38.058Z,52.27
2018-03-26T20:16:12.905Z,39.23
2018-03-26T20:18:41.270Z,48.07
2018-03-26T20:21:09.573Z,58.67
2018-03-26T20:23:37.769Z,48.47
2018-03-26T20:26:05.977Z,50.37
2018-03-26T20:28:34.774Z,53.90
2018-03-26T20:31:04.493Z,40.50
2018-03-26T20:33:33.472Z,44.00
2018-03-26T20:36:02.150Z,41.03
2018-03-26T20:38:30.372Z,48.07
2018-03-26T20:40:58.565Z,43.83
2018-03-26T20:43:26.769Z,41.90
2018-03-26T20:45:54.976Z,33.37
2018-03-26T20:48:24.669Z,46.37
2018-03-26T20:50:53.107Z,36.70
2018-03-26T20:53:27.374Z,39.40
2018-03-26T20:55:56.530Z,42.67
2018-03-26T20:58:24.736Z,42.07
2018-03-26T21:00:53.074Z,47.80
2018-03-26T21:03:21.605Z,43.63
2018-03-26T21:05:49.802Z,40.10
2018-03-26T21:08:18.781Z,41.13
2018-03-26T21:10:46.998Z,49.87
2018-03-26T21:13:15.208Z,41.93
2018-03-26T21:15:44.017Z,41.00
2018-03-26T21:18:12.611Z,40.63
2018-03-26T21:20:43.113Z,45.73
2018-03-26T21:23:11.374Z,43.50
2018-03-26T21:25:39.764Z,45.27
2018-03-26T21:28:07.971Z,42.37
2018-03-26T21:30:37.253Z,38.50
2018-03-26T21:33:11.655Z,35.83
2018-03-26T21:35:39.848Z,37.87
2018-03-26T21:38:08.116Z,44.50
2018-03-26T21:40:36.938Z,46.20
2018-03-26T21:43:05.910Z,41.87
2018-03-26T21:45:34.702Z,38.57
2018-03-26T21:48:02.926Z,35.13
2018-03-26T21:50:31.836Z,41.03
2018-03-26T21:53:00.553Z,43.43
2018-03-26T21:55:29.265Z,43.43
2018-03-26T22:00:32.452Z,39.73
2018-03-26T22:03:00.954Z,42.60
2018-03-26T22:05:30.477Z,43.17
2018-03-26T22:07:58.681Z,41.37
2018-03-26T22:10:26.890Z,42.57
2018-03-26T22:12:55.854Z,41.43
2018-03-26T22:15:33.617Z,41.97
2018-03-26T22:18:01.931Z,43.73
2018-03-26T22:20:30.362Z,46.00
2018-03-26T22:22:59.786Z,40.17
2018-03-26T22:25:27.994Z,42.17
2018-03-26T22:27:56.193Z,40.30
2018-03-26T22:30:24.673Z,45.07
2018-03-26T22:32:53.301Z,47.77
2018-03-26T22:35:21.599Z,43.60
2018-03-26T22:37:49.799Z,41.67
2018-03-26T22:40:18.089Z,47.37
2018-03-26T22:42:46.330Z,42.50
2018-03-26T22:45:14.541Z,42.20
2018-03-26T22:47:43.258Z,42.17
2018-03-26T22:50:12.222Z,39.73
2018-03-26T22:52:40.989Z,37.00
2018-03-26T22:55:09.513Z,40.03
2018-03-26T22:57:38.486Z,37.27
2018-03-26T23:00:07.114Z,36.60
2018-03-26T23:02:35.321Z,38.83
2018-03-26T23:05:03.724Z,34.30
2018-03-26T23:07:32.298Z,38.30
2018-03-26T23:10:00.509Z,36.83
2018-03-26T23:12:28.728Z,36.43
2018-03-26T23:14:56.940Z,40.87
2018-03-26T23:17:25.933Z,39.83
2018-03-26T23:19:54.099Z,39.47
2018-03-26T23:22:35.241Z,41.37
2018-03-26T23:25:03.450Z,41.67
2018-03-26T23:27:31.654Z,42.13
2018-03-26T23:30:00.143Z,38.03
2018-03-26T23:32:29.694Z,42.67
2018-03-26T23:34:57.898Z,46.73
2018-03-26T23:37:26.618Z,43.67
2018-03-26T23:39:56.338Z,39.87
2018-03-26T23:42:25.298Z,44.33
2018-03-26T23:44:53.504Z,35.57
2018-03-26T23:47:22.493Z,42.77
2018-03-26T23:49:51.269Z,44.07
2018-03-26T23:52:26.729Z,39.17
2018-03-26T23:54:56.031Z,45.07
2018-03-26T23:57:24.992Z,37.70
2018-03-26T23:59:53.680Z,35.50
